sensor_id;sensor_type;location;lat;lon;timestamp;P1;durP1;ratioP1;P2;durP2;ratioP2
41817;SDS011;27493;51.730;5.294;2023-04-23T00:00:10;69.53;;;37.17;;
41817;SDS011;27493;51.730;5.294;2023-04-23T00:02:37;73.13;;;37.83;;
41817;SDS011;27493;51.730;5.294;2023-04-23T00:05:03;70.83;;;36.73;;
41817;SDS011;27493;51.730;5.294;2023-04-23T00:07:30;69.47;;;37.03;;
41817;SDS011;27493;51.730;5.294;2023-04-23T00:09:55;71.53;;;37.67;;
41817;SDS011;27493;51.730;5.294;2023-04-23T00:12:21;70.20;;;36.27;;
41817;SDS011;27493;51.730;5.294;2023-04-23T00:14:46;67.53;;;35.30;;
41817;SDS011;27493;51.730;5.294;2023-04-23T00:17:12;68.10;;;36.93;;
41817;SDS011;27493;51.730;5.294;2023-04-23T00:19:37;61.43;;;34.67;;
41817;SDS011;27493;51.730;5.294;2023-04-23T00:22:02;60.97;;;34.27;;
41817;SDS011;27493;51.730;5.294;2023-04-23T00:24:27;64.27;;;34.77;;
41817;SDS011;27493;51.730;5.294;2023-04-23T00:26:52;63.00;;;34.27;;
41817;SDS011;27493;51.730;5.294;2023-04-23T00:29:18;61.70;;;32.43;;
41817;SDS011;27493;51.730;5.294;2023-04-23T00:31:43;62.37;;;33.50;;
41817;SDS011;27493;51.730;5.294;2023-04-23T00:34:08;64.47;;;34.40;;
41817;SDS011;27493;51.730;5.294;2023-04-23T00:36:33;58.87;;;33.43;;
41817;SDS011;27493;51.730;5.294;2023-04-23T00:38:58;63.77;;;32.87;;
41817;SDS011;27493;51.730;5.294;2023-04-23T00:41:24;63.03;;;33.97;;
41817;SDS011;27493;51.730;5.294;2023-04-23T00:43:49;61.90;;;32.20;;
41817;SDS011;27493;51.730;5.294;2023-04-23T00:46:17;70.13;;;34.77;;
41817;SDS011;27493;51.730;5.294;2023-04-23T00:48:42;65.77;;;34.27;;
41817;SDS011;27493;51.730;5.294;2023-04-23T00:51:09;64.67;;;34.60;;
41817;SDS011;27493;51.730;5.294;2023-04-23T00:53:35;69.43;;;35.07;;
41817;SDS011;27493;51.730;5.294;2023-04-23T00:56:00;63.90;;;34.50;;
41817;SDS011;27493;51.730;5.294;2023-04-23T00:58:27;70.97;;;36.43;;
41817;SDS011;27493;51.730;5.294;2023-04-23T01:00:52;73.53;;;36.90;;
41817;SDS011;27493;51.730;5.294;2023-04-23T01:03:17;66.87;;;35.07;;
41817;SDS011;27493;51.730;5.294;2023-04-23T01:05:45;69.53;;;35.37;;
41817;SDS011;27493;51.730;5.294;2023-04-23T01:08:13;67.23;;;34.27;;
41817;SDS011;27493;51.730;5.294;2023-04-23T01:10:39;72.67;;;35.43;;
41817;SDS011;27493;51.730;5.294;2023-04-23T01:13:04;71.13;;;36.47;;
41817;SDS011;27493;51.730;5.294;2023-04-23T01:15:29;70.83;;;37.20;;
41817;SDS011;27493;51.730;5.294;2023-04-23T01:17:55;70.03;;;34.80;;
41817;SDS011;27493;51.730;5.294;2023-04-23T01:20:22;72.73;;;36.53;;
41817;SDS011;27493;51.730;5.294;2023-04-23T01:22:47;72.60;;;36.70;;
41817;SDS011;27493;51.730;5.294;2023-04-23T01:25:12;70.37;;;36.17;;
41817;SDS011;27493;51.730;5.294;2023-04-23T01:27:38;70.07;;;35.73;;
41817;SDS011;27493;51.730;5.294;2023-04-23T01:30:03;67.93;;;36.40;;
41817;SDS011;27493;51.730;5.294;2023-04-23T01:32:30;72.53;;;35.70;;
41817;SDS011;27493;51.730;5.294;2023-04-23T01:34:55;69.33;;;35.43;;
41817;SDS011;27493;51.730;5.294;2023-04-23T01:37:21;71.63;;;35.90;;
41817;SDS011;27493;51.730;5.294;2023-04-23T01:39:47;71.47;;;36.87;;
41817;SDS011;27493;51.730;5.294;2023-04-23T01:42:12;72.60;;;36.60;;
41817;SDS011;27493;51.730;5.294;2023-04-23T01:44:38;68.13;;;35.13;;
41817;SDS011;27493;51.730;5.294;2023-04-23T01:47:03;67.43;;;35.03;;
41817;SDS011;27493;51.730;5.294;2023-04-23T01:49:28;64.60;;;34.60;;
41817;SDS011;27493;51.730;5.294;2023-04-23T01:51:53;66.83;;;34.77;;
41817;SDS011;27493;51.730;5.294;2023-04-23T01:54:19;72.20;;;36.00;;
41817;SDS011;27493;51.730;5.294;2023-04-23T01:56:44;67.60;;;35.83;;
41817;SDS011;27493;51.730;5.294;2023-04-23T01:59:09;69.30;;;35.43;;
41817;SDS011;27493;51.730;5.294;2023-04-23T02:01:41;72.07;;;36.33;;
41817;SDS011;27493;51.730;5.294;2023-04-23T02:04:07;65.27;;;34.73;;
41817;SDS011;27493;51.730;5.294;2023-04-23T02:06:32;65.80;;;34.47;;
41817;SDS011;27493;51.730;5.294;2023-04-23T02:08:57;64.80;;;35.20;;
41817;SDS011;27493;51.730;5.294;2023-04-23T02:11:22;63.60;;;33.50;;
41817;SDS011;27493;51.730;5.294;2023-04-23T02:13:47;68.30;;;35.10;;
41817;SDS011;27493;51.730;5.294;2023-04-23T02:16:12;63.23;;;35.27;;
41817;SDS011;27493;51.730;5.294;2023-04-23T02:18:38;64.47;;;34.30;;
41817;SDS011;27493;51.730;5.294;2023-04-23T02:21:03;61.73;;;34.13;;
41817;SDS011;27493;51.730;5.294;2023-04-23T02:23:28;60.67;;;33.03;;
41817;SDS011;27493;51.730;5.294;2023-04-23T02:25:53;60.70;;;33.80;;
41817;SDS011;27493;51.730;5.294;2023-04-23T02:28:18;58.83;;;31.70;;
41817;SDS011;27493;51.730;5.294;2023-04-23T02:30:44;56.83;;;32.07;;
41817;SDS011;27493;51.730;5.294;2023-04-23T02:33:11;59.20;;;31.23;;
41817;SDS011;27493;51.730;5.294;2023-04-23T02:35:37;60.37;;;32.37;;
41817;SDS011;27493;51.730;5.294;2023-04-23T02:38:02;51.00;;;30.37;;
41817;SDS011;27493;51.730;5.294;2023-04-23T02:40:27;53.83;;;31.03;;
41817;SDS011;27493;51.730;5.294;2023-04-23T02:42:52;47.90;;;29.23;;
41817;SDS011;27493;51.730;5.294;2023-04-23T02:45:17;50.87;;;29.57;;
41817;SDS011;27493;51.730;5.294;2023-04-23T02:47:43;47.90;;;28.80;;
41817;SDS011;27493;51.730;5.294;2023-04-23T02:50:08;47.27;;;28.63;;
41817;SDS011;27493;51.730;5.294;2023-04-23T02:52:33;44.77;;;26.83;;
41817;SDS011;27493;51.730;5.294;2023-04-23T02:54:59;41.23;;;26.00;;
41817;SDS011;27493;51.730;5.294;2023-04-23T02:57:25;41.77;;;25.77;;
41817;SDS011;27493;51.730;5.294;2023-04-23T02:59:51;39.93;;;24.87;;
41817;SDS011;27493;51.730;5.294;2023-04-23T03:02:16;39.90;;;25.13;;
41817;SDS011;27493;51.730;5.294;2023-04-23T03:04:41;37.73;;;24.00;;
41817;SDS011;27493;51.730;5.294;2023-04-23T03:07:06;36.83;;;23.80;;
41817;SDS011;27493;51.730;5.294;2023-04-23T03:09:32;37.70;;;24.47;;
41817;SDS011;27493;51.730;5.294;2023-04-23T03:11:57;39.57;;;23.73;;
41817;SDS011;27493;51.730;5.294;2023-04-23T03:14:22;33.50;;;22.30;;
41817;SDS011;27493;51.730;5.294;2023-04-23T03:16:47;36.00;;;23.00;;
41817;SDS011;27493;51.730;5.294;2023-04-23T03:19:13;34.07;;;22.10;;
41817;SDS011;27493;51.730;5.294;2023-04-23T03:21:38;34.57;;;23.13;;
41817;SDS011;27493;51.730;5.294;2023-04-23T03:24:04;32.67;;;22.47;;
41817;SDS011;27493;51.730;5.294;2023-04-23T03:26:29;33.57;;;22.90;;
41817;SDS011;27493;51.730;5.294;2023-04-23T03:28:55;35.37;;;22.47;;
41817;SDS011;27493;51.730;5.294;2023-04-23T03:31:20;33.80;;;21.83;;
41817;SDS011;27493;51.730;5.294;2023-04-23T03:33:45;33.40;;;22.47;;
41817;SDS011;27493;51.730;5.294;2023-04-23T03:36:10;31.57;;;22.13;;
41817;SDS011;27493;51.730;5.294;2023-04-23T03:38:36;31.90;;;21.73;;
41817;SDS011;27493;51.730;5.294;2023-04-23T03:41:01;33.27;;;21.70;;
41817;SDS011;27493;51.730;5.294;2023-04-23T03:43:26;33.53;;;22.43;;
41817;SDS011;27493;51.730;5.294;2023-04-23T03:45:51;32.40;;;22.50;;
41817;SDS011;27493;51.730;5.294;2023-04-23T03:48:17;33.37;;;22.20;;
41817;SDS011;27493;51.730;5.294;2023-04-23T03:50:42;30.87;;;21.53;;
41817;SDS011;27493;51.730;5.294;2023-04-23T03:53:07;29.90;;;20.80;;
41817;SDS011;27493;51.730;5.294;2023-04-23T03:55:33;31.30;;;21.37;;
41817;SDS011;27493;51.730;5.294;2023-04-23T03:57:59;30.77;;;21.13;;
41817;SDS011;27493;51.730;5.294;2023-04-23T04:00:27;30.10;;;21.47;;
41817;SDS011;27493;51.730;5.294;2023-04-23T04:02:52;32.30;;;22.30;;
41817;SDS011;27493;51.730;5.294;2023-04-23T04:05:17;31.63;;;21.63;;
41817;SDS011;27493;51.730;5.294;2023-04-23T04:07:43;33.80;;;21.93;;
41817;SDS011;27493;51.730;5.294;2023-04-23T04:10:08;31.80;;;21.30;;
41817;SDS011;27493;51.730;5.294;2023-04-23T04:12:33;28.60;;;20.80;;
41817;SDS011;27493;51.730;5.294;2023-04-23T04:14:58;31.17;;;21.50;;
41817;SDS011;27493;51.730;5.294;2023-04-23T04:17:23;30.67;;;21.03;;
41817;SDS011;27493;51.730;5.294;2023-04-23T04:19:49;29.03;;;20.67;;
41817;SDS011;27493;51.730;5.294;2023-04-23T04:22:14;32.67;;;21.13;;
41817;SDS011;27493;51.730;5.294;2023-04-23T04:24:40;28.13;;;20.37;;
41817;SDS011;27493;51.730;5.294;2023-04-23T04:27:05;30.57;;;20.97;;
41817;SDS011;27493;51.730;5.294;2023-04-23T04:29:31;32.83;;;21.20;;
41817;SDS011;27493;51.730;5.294;2023-04-23T04:31:56;30.30;;;21.17;;
41817;SDS011;27493;51.730;5.294;2023-04-23T04:34:21;29.77;;;20.50;;
41817;SDS011;27493;51.730;5.294;2023-04-23T04:36:47;28.70;;;21.20;;
41817;SDS011;27493;51.730;5.294;2023-04-23T04:39:12;30.10;;;21.60;;
41817;SDS011;27493;51.730;5.294;2023-04-23T04:41:38;29.10;;;20.47;;
41817;SDS011;27493;51.730;5.294;2023-04-23T04:44:04;31.03;;;20.77;;
41817;SDS011;27493;51.730;5.294;2023-04-23T04:46:31;29.73;;;20.53;;
41817;SDS011;27493;51.730;5.294;2023-04-23T04:48:57;29.83;;;20.97;;
41817;SDS011;27493;51.730;5.294;2023-04-23T04:51:23;29.10;;;21.10;;
41817;SDS011;27493;51.730;5.294;2023-04-23T04:53:48;29.13;;;20.50;;
41817;SDS011;27493;51.730;5.294;2023-04-23T04:56:13;31.80;;;21.43;;
41817;SDS011;27493;51.730;5.294;2023-04-23T04:58:38;28.50;;;20.00;;
41817;SDS011;27493;51.730;5.294;2023-04-23T05:01:04;27.63;;;19.77;;
41817;SDS011;27493;51.730;5.294;2023-04-23T05:03:29;31.77;;;20.27;;
41817;SDS011;27493;51.730;5.294;2023-04-23T05:05:55;29.60;;;20.17;;
41817;SDS011;27493;51.730;5.294;2023-04-23T05:08:20;30.97;;;20.63;;
41817;SDS011;27493;51.730;5.294;2023-04-23T05:10:46;29.17;;;20.47;;
41817;SDS011;27493;51.730;5.294;2023-04-23T05:13:11;26.90;;;19.47;;
41817;SDS011;27493;51.730;5.294;2023-04-23T05:15:36;26.50;;;19.53;;
41817;SDS011;27493;51.730;5.294;2023-04-23T05:18:02;27.47;;;18.90;;
41817;SDS011;27493;51.730;5.294;2023-04-23T05:20:27;31.53;;;20.20;;
41817;SDS011;27493;51.730;5.294;2023-04-23T05:22:53;27.00;;;19.60;;
41817;SDS011;27493;51.730;5.294;2023-04-23T05:25:18;28.77;;;19.03;;
41817;SDS011;27493;51.730;5.294;2023-04-23T05:27:44;28.80;;;18.77;;
41817;SDS011;27493;51.730;5.294;2023-04-23T05:30:09;26.67;;;19.33;;
41817;SDS011;27493;51.730;5.294;2023-04-23T05:32:35;25.47;;;18.17;;
41817;SDS011;27493;51.730;5.294;2023-04-23T05:35:00;27.63;;;19.43;;
41817;SDS011;27493;51.730;5.294;2023-04-23T05:37:26;25.87;;;18.23;;
41817;SDS011;27493;51.730;5.294;2023-04-23T05:39:52;26.30;;;18.27;;
41817;SDS011;27493;51.730;5.294;2023-04-23T05:42:18;30.90;;;19.90;;
41817;SDS011;27493;51.730;5.294;2023-04-23T05:44:43;25.43;;;18.70;;
41817;SDS011;27493;51.730;5.294;2023-04-23T05:47:09;27.17;;;18.67;;
41817;SDS011;27493;51.730;5.294;2023-04-23T05:49:34;26.43;;;18.23;;
41817;SDS011;27493;51.730;5.294;2023-04-23T05:52:00;26.47;;;18.97;;
41817;SDS011;27493;51.730;5.294;2023-04-23T05:54:26;27.37;;;18.90;;
41817;SDS011;27493;51.730;5.294;2023-04-23T05:56:52;27.97;;;18.83;;
41817;SDS011;27493;51.730;5.294;2023-04-23T05:59:17;25.47;;;18.00;;
41817;SDS011;27493;51.730;5.294;2023-04-23T06:01:42;22.87;;;17.83;;
41817;SDS011;27493;51.730;5.294;2023-04-23T06:04:07;27.10;;;19.27;;
41817;SDS011;27493;51.730;5.294;2023-04-23T06:06:32;26.23;;;18.90;;
41817;SDS011;27493;51.730;5.294;2023-04-23T06:08:57;24.90;;;18.10;;
41817;SDS011;27493;51.730;5.294;2023-04-23T06:11:23;25.07;;;17.80;;
41817;SDS011;27493;51.730;5.294;2023-04-23T06:13:48;24.00;;;18.17;;
41817;SDS011;27493;51.730;5.294;2023-04-23T06:16:13;25.63;;;17.80;;
41817;SDS011;27493;51.730;5.294;2023-04-23T06:18:38;23.13;;;17.47;;
41817;SDS011;27493;51.730;5.294;2023-04-23T06:21:04;25.90;;;17.50;;
41817;SDS011;27493;51.730;5.294;2023-04-23T06:23:30;24.03;;;17.80;;
41817;SDS011;27493;51.730;5.294;2023-04-23T06:25:55;23.10;;;16.50;;
41817;SDS011;27493;51.730;5.294;2023-04-23T06:28:20;24.10;;;17.07;;
41817;SDS011;27493;51.730;5.294;2023-04-23T06:30:46;21.87;;;16.53;;
41817;SDS011;27493;51.730;5.294;2023-04-23T06:36:14;23.00;;;15.50;;
41817;SDS011;27493;51.730;5.294;2023-04-23T06:41:42;21.10;;;14.80;;
41817;SDS011;27493;51.730;5.294;2023-04-23T06:44:07;20.87;;;15.27;;
41817;SDS011;27493;51.730;5.294;2023-04-23T06:46:32;21.40;;;14.73;;
41817;SDS011;27493;51.730;5.294;2023-04-23T06:48:57;22.43;;;15.17;;
41817;SDS011;27493;51.730;5.294;2023-04-23T06:51:24;19.73;;;14.73;;
41817;SDS011;27493;51.730;5.294;2023-04-23T06:53:49;21.27;;;14.47;;
41817;SDS011;27493;51.730;5.294;2023-04-23T06:56:15;18.33;;;13.57;;
41817;SDS011;27493;51.730;5.294;2023-04-23T06:58:40;19.43;;;14.20;;
41817;SDS011;27493;51.730;5.294;2023-04-23T07:01:05;19.67;;;14.43;;
41817;SDS011;27493;51.730;5.294;2023-04-23T07:03:31;21.57;;;14.13;;
41817;SDS011;27493;51.730;5.294;2023-04-23T07:05:56;17.00;;;12.80;;
41817;SDS011;27493;51.730;5.294;2023-04-23T07:08:22;16.60;;;12.37;;
41817;SDS011;27493;51.730;5.294;2023-04-23T07:10:47;20.50;;;13.57;;
41817;SDS011;27493;51.730;5.294;2023-04-23T07:13:12;17.40;;;12.23;;
41817;SDS011;27493;51.730;5.294;2023-04-23T07:15:38;16.53;;;12.87;;
41817;SDS011;27493;51.730;5.294;2023-04-23T07:18:03;19.10;;;13.13;;
41817;SDS011;27493;51.730;5.294;2023-04-23T07:20:28;13.73;;;11.87;;
41817;SDS011;27493;51.730;5.294;2023-04-23T07:22:54;16.73;;;12.03;;
41817;SDS011;27493;51.730;5.294;2023-04-23T07:25:19;17.13;;;12.43;;
41817;SDS011;27493;51.730;5.294;2023-04-23T07:27:46;17.70;;;11.77;;
41817;SDS011;27493;51.730;5.294;2023-04-23T07:30:11;15.77;;;10.73;;
41817;SDS011;27493;51.730;5.294;2023-04-23T07:32:37;21.33;;;11.20;;
41817;SDS011;27493;51.730;5.294;2023-04-23T07:35:02;16.93;;;10.80;;
41817;SDS011;27493;51.730;5.294;2023-04-23T07:37:28;14.60;;;9.63;;
41817;SDS011;27493;51.730;5.294;2023-04-23T07:39:54;14.13;;;9.70;;
41817;SDS011;27493;51.730;5.294;2023-04-23T07:42:19;13.87;;;9.63;;
41817;SDS011;27493;51.730;5.294;2023-04-23T07:44:44;13.73;;;9.67;;
41817;SDS011;27493;51.730;5.294;2023-04-23T07:47:10;13.53;;;9.30;;
41817;SDS011;27493;51.730;5.294;2023-04-23T07:49:35;13.77;;;9.13;;
41817;SDS011;27493;51.730;5.294;2023-04-23T07:52:00;14.47;;;9.37;;
41817;SDS011;27493;51.730;5.294;2023-04-23T07:54:25;12.20;;;8.77;;
41817;SDS011;27493;51.730;5.294;2023-04-23T07:56:51;12.27;;;8.60;;
41817;SDS011;27493;51.730;5.294;2023-04-23T07:59:16;12.83;;;8.07;;
41817;SDS011;27493;51.730;5.294;2023-04-23T08:01:41;11.63;;;8.20;;
41817;SDS011;27493;51.730;5.294;2023-04-23T08:04:06;11.53;;;8.00;;
41817;SDS011;27493;51.730;5.294;2023-04-23T08:06:31;14.23;;;7.57;;
41817;SDS011;27493;51.730;5.294;2023-04-23T08:08:59;14.00;;;7.60;;
41817;SDS011;27493;51.730;5.294;2023-04-23T08:11:24;12.33;;;7.33;;
41817;SDS011;27493;51.730;5.294;2023-04-23T08:13:49;11.30;;;7.10;;
41817;SDS011;27493;51.730;5.294;2023-04-23T08:16:15;13.47;;;7.07;;
41817;SDS011;27493;51.730;5.294;2023-04-23T08:18:40;10.73;;;6.50;;
41817;SDS011;27493;51.730;5.294;2023-04-23T08:21:05;15.53;;;7.10;;
41817;SDS011;27493;51.730;5.294;2023-04-23T08:23:30;13.30;;;6.90;;
41817;SDS011;27493;51.730;5.294;2023-04-23T08:25:55;11.67;;;6.10;;
41817;SDS011;27493;51.730;5.294;2023-04-23T08:28:21;11.33;;;5.80;;
41817;SDS011;27493;51.730;5.294;2023-04-23T08:30:46;11.87;;;6.23;;
41817;SDS011;27493;51.730;5.294;2023-04-23T08:33:11;11.87;;;7.27;;
41817;SDS011;27493;51.730;5.294;2023-04-23T08:35:36;10.50;;;6.60;;
41817;SDS011;27493;51.730;5.294;2023-04-23T08:38:02;10.83;;;6.60;;
41817;SDS011;27493;51.730;5.294;2023-04-23T08:40:29;10.83;;;6.90;;
41817;SDS011;27493;51.730;5.294;2023-04-23T08:43:01;9.70;;;6.00;;
41817;SDS011;27493;51.730;5.294;2023-04-23T08:45:27;13.07;;;6.50;;
41817;SDS011;27493;51.730;5.294;2023-04-23T08:47:55;11.07;;;6.20;;
41817;SDS011;27493;51.730;5.294;2023-04-23T08:50:22;12.33;;;5.93;;
41817;SDS011;27493;51.730;5.294;2023-04-23T08:52:49;12.13;;;6.70;;
41817;SDS011;27493;51.730;5.294;2023-04-23T08:55:16;8.43;;;5.93;;
41817;SDS011;27493;51.730;5.294;2023-04-23T08:57:42;11.00;;;5.20;;
41817;SDS011;27493;51.730;5.294;2023-04-23T09:00:09;10.57;;;5.00;;
41817;SDS011;27493;51.730;5.294;2023-04-23T09:02:36;12.73;;;5.77;;
41817;SDS011;27493;51.730;5.294;2023-04-23T09:05:04;10.80;;;5.27;;
41817;SDS011;27493;51.730;5.294;2023-04-23T09:07:30;11.37;;;5.47;;
41817;SDS011;27493;51.730;5.294;2023-04-23T09:09:55;8.57;;;5.10;;
41817;SDS011;27493;51.730;5.294;2023-04-23T09:12:21;10.93;;;5.07;;
41817;SDS011;27493;51.730;5.294;2023-04-23T09:14:46;9.93;;;5.03;;
41817;SDS011;27493;51.730;5.294;2023-04-23T09:17:11;12.40;;;4.90;;
41817;SDS011;27493;51.730;5.294;2023-04-23T09:19:36;12.43;;;5.13;;
41817;SDS011;27493;51.730;5.294;2023-04-23T09:22:03;7.57;;;4.40;;
41817;SDS011;27493;51.730;5.294;2023-04-23T09:24:28;6.97;;;3.73;;
41817;SDS011;27493;51.730;5.294;2023-04-23T09:26:55;9.43;;;3.93;;
41817;SDS011;27493;51.730;5.294;2023-04-23T09:29:22;10.17;;;3.90;;
41817;SDS011;27493;51.730;5.294;2023-04-23T09:31:51;8.57;;;3.77;;
41817;SDS011;27493;51.730;5.294;2023-04-23T09:34:17;8.33;;;3.63;;
41817;SDS011;27493;51.730;5.294;2023-04-23T09:36:44;9.90;;;3.83;;
41817;SDS011;27493;51.730;5.294;2023-04-23T09:39:16;9.20;;;3.73;;
41817;SDS011;27493;51.730;5.294;2023-04-23T09:41:42;7.70;;;3.50;;
41817;SDS011;27493;51.730;5.294;2023-04-23T09:44:07;9.67;;;3.40;;
41817;SDS011;27493;51.730;5.294;2023-04-23T09:46:39;9.90;;;3.90;;
41817;SDS011;27493;51.730;5.294;2023-04-23T09:49:06;7.80;;;3.20;;
41817;SDS011;27493;51.730;5.294;2023-04-23T09:51:32;7.33;;;3.27;;
41817;SDS011;27493;51.730;5.294;2023-04-23T09:53:58;4.50;;;2.70;;
41817;SDS011;27493;51.730;5.294;2023-04-23T09:56:25;5.03;;;2.93;;
41817;SDS011;27493;51.730;5.294;2023-04-23T09:58:50;10.40;;;3.17;;
41817;SDS011;27493;51.730;5.294;2023-04-23T10:01:15;8.90;;;3.00;;
41817;SDS011;27493;51.730;5.294;2023-04-23T10:03:41;7.50;;;2.83;;
41817;SDS011;27493;51.730;5.294;2023-04-23T10:06:06;5.97;;;2.60;;
41817;SDS011;27493;51.730;5.294;2023-04-23T10:08:31;7.83;;;3.10;;
41817;SDS011;27493;51.730;5.294;2023-04-23T10:10:57;7.30;;;2.70;;
41817;SDS011;27493;51.730;5.294;2023-04-23T10:13:22;6.55;;;2.90;;
41817;SDS011;27493;51.730;5.294;2023-04-23T10:15:47;6.23;;;2.77;;
41817;SDS011;27493;51.730;5.294;2023-04-23T10:18:15;10.03;;;2.77;;
41817;SDS011;27493;51.730;5.294;2023-04-23T10:20:41;5.87;;;2.47;;
41817;SDS011;27493;51.730;5.294;2023-04-23T10:23:07;4.43;;;2.27;;
41817;SDS011;27493;51.730;5.294;2023-04-23T10:25:33;3.90;;;2.13;;
41817;SDS011;27493;51.730;5.294;2023-04-23T10:27:58;5.43;;;2.20;;
41817;SDS011;27493;51.730;5.294;2023-04-23T10:30:24;6.67;;;2.23;;
41817;SDS011;27493;51.730;5.294;2023-04-23T10:32:50;5.97;;;2.47;;
41817;SDS011;27493;51.730;5.294;2023-04-23T10:35:16;8.97;;;2.30;;
41817;SDS011;27493;51.730;5.294;2023-04-23T10:37:41;5.10;;;2.20;;
41817;SDS011;27493;51.730;5.294;2023-04-23T10:40:09;5.63;;;2.20;;
41817;SDS011;27493;51.730;5.294;2023-04-23T10:42:40;8.33;;;2.40;;
41817;SDS011;27493;51.730;5.294;2023-04-23T10:45:14;6.03;;;2.40;;
41817;SDS011;27493;51.730;5.294;2023-04-23T10:47:41;6.03;;;2.30;;
41817;SDS011;27493;51.730;5.294;2023-04-23T10:52:44;5.27;;;2.23;;
41817;SDS011;27493;51.730;5.294;2023-04-23T10:55:15;7.57;;;2.50;;
41817;SDS011;27493;51.730;5.294;2023-04-23T10:57:56;5.73;;;1.97;;
41817;SDS011;27493;51.730;5.294;2023-04-23T11:00:25;11.00;;;2.67;;
41817;SDS011;27493;51.730;5.294;2023-04-23T11:02:51;10.03;;;2.53;;
41817;SDS011;27493;51.730;5.294;2023-04-23T11:05:17;4.93;;;2.63;;
41817;SDS011;27493;51.730;5.294;2023-04-23T11:07:44;3.57;;;2.10;;
41817;SDS011;27493;51.730;5.294;2023-04-23T11:10:25;5.17;;;2.30;;
41817;SDS011;27493;51.730;5.294;2023-04-23T11:12:50;5.77;;;2.10;;
41817;SDS011;27493;51.730;5.294;2023-04-23T11:15:17;5.87;;;2.07;;
41817;SDS011;27493;51.730;5.294;2023-04-23T11:22:41;7.40;;;5.10;;
41817;SDS011;27493;51.730;5.294;2023-04-23T11:25:11;4.33;;;1.90;;
41817;SDS011;27493;51.730;5.294;2023-04-23T11:27:37;6.17;;;2.00;;
41817;SDS011;27493;51.730;5.294;2023-04-23T11:30:02;5.53;;;2.30;;
41817;SDS011;27493;51.730;5.294;2023-04-23T11:32:29;6.13;;;2.60;;
41817;SDS011;27493;51.730;5.294;2023-04-23T11:34:54;5.37;;;2.27;;
41817;SDS011;27493;51.730;5.294;2023-04-23T11:37:21;5.60;;;2.30;;
41817;SDS011;27493;51.730;5.294;2023-04-23T11:39:46;5.07;;;1.80;;
41817;SDS011;27493;51.730;5.294;2023-04-23T11:42:14;4.93;;;2.03;;
41817;SDS011;27493;51.730;5.294;2023-04-23T11:44:40;5.17;;;2.10;;
41817;SDS011;27493;51.730;5.294;2023-04-23T11:47:06;5.00;;;2.50;;
41817;SDS011;27493;51.730;5.294;2023-04-23T11:49:31;4.33;;;1.90;;
41817;SDS011;27493;51.730;5.294;2023-04-23T11:51:57;5.73;;;2.23;;
41817;SDS011;27493;51.730;5.294;2023-04-23T11:54:24;5.57;;;2.23;;
41817;SDS011;27493;51.730;5.294;2023-04-23T11:56:51;5.80;;;2.33;;
41817;SDS011;27493;51.730;5.294;2023-04-23T11:59:17;4.70;;;2.20;;
41817;SDS011;27493;51.730;5.294;2023-04-23T12:01:43;3.13;;;1.90;;
41817;SDS011;27493;51.730;5.294;2023-04-23T12:04:09;3.30;;;2.03;;
41817;SDS011;27493;51.730;5.294;2023-04-23T12:06:35;5.57;;;2.60;;
41817;SDS011;27493;51.730;5.294;2023-04-23T12:09:00;6.50;;;2.00;;
41817;SDS011;27493;51.730;5.294;2023-04-23T12:11:25;8.07;;;2.43;;
41817;SDS011;27493;51.730;5.294;2023-04-23T12:13:51;6.73;;;2.40;;
41817;SDS011;27493;51.730;5.294;2023-04-23T12:16:18;6.53;;;2.10;;
41817;SDS011;27493;51.730;5.294;2023-04-23T12:18:57;4.83;;;2.10;;
41817;SDS011;27493;51.730;5.294;2023-04-23T12:21:22;4.90;;;1.90;;
41817;SDS011;27493;51.730;5.294;2023-04-23T12:23:50;6.47;;;2.47;;
41817;SDS011;27493;51.730;5.294;2023-04-23T12:26:15;6.93;;;2.40;;
41817;SDS011;27493;51.730;5.294;2023-04-23T12:28:50;4.67;;;1.93;;
41817;SDS011;27493;51.730;5.294;2023-04-23T12:31:19;5.47;;;1.90;;
41817;SDS011;27493;51.730;5.294;2023-04-23T12:33:45;3.27;;;1.73;;
41817;SDS011;27493;51.730;5.294;2023-04-23T12:36:10;5.23;;;2.00;;
41817;SDS011;27493;51.730;5.294;2023-04-23T12:38:36;4.47;;;2.10;;
41817;SDS011;27493;51.730;5.294;2023-04-23T12:41:03;4.10;;;1.80;;
41817;SDS011;27493;51.730;5.294;2023-04-23T12:43:28;7.47;;;2.30;;
41817;SDS011;27493;51.730;5.294;2023-04-23T12:45:53;5.87;;;1.60;;
41817;SDS011;27493;51.730;5.294;2023-04-23T12:48:18;4.73;;;1.80;;
41817;SDS011;27493;51.730;5.294;2023-04-23T12:50:44;3.50;;;2.30;;
41817;SDS011;27493;51.730;5.294;2023-04-23T12:53:09;4.90;;;1.77;;
41817;SDS011;27493;51.730;5.294;2023-04-23T12:55:35;4.03;;;1.60;;
41817;SDS011;27493;51.730;5.294;2023-04-23T12:58:00;3.90;;;1.60;;
41817;SDS011;27493;51.730;5.294;2023-04-23T13:00:26;6.10;;;1.90;;
41817;SDS011;27493;51.730;5.294;2023-04-23T13:02:51;4.10;;;1.53;;
41817;SDS011;27493;51.730;5.294;2023-04-23T13:05:16;4.37;;;1.70;;
41817;SDS011;27493;51.730;5.294;2023-04-23T13:07:41;5.10;;;2.00;;
41817;SDS011;27493;51.730;5.294;2023-04-23T13:10:07;4.70;;;1.83;;
41817;SDS011;27493;51.730;5.294;2023-04-23T13:12:33;7.80;;;2.23;;
41817;SDS011;27493;51.730;5.294;2023-04-23T13:14:58;4.23;;;1.87;;
41817;SDS011;27493;51.730;5.294;2023-04-23T13:17:23;3.17;;;1.50;;
41817;SDS011;27493;51.730;5.294;2023-04-23T13:19:50;4.73;;;1.60;;
41817;SDS011;27493;51.730;5.294;2023-04-23T13:22:15;4.47;;;1.50;;
41817;SDS011;27493;51.730;5.294;2023-04-23T13:24:41;8.53;;;1.80;;
41817;SDS011;27493;51.730;5.294;2023-04-23T13:27:06;4.07;;;1.87;;
41817;SDS011;27493;51.730;5.294;2023-04-23T13:29:31;3.97;;;1.47;;
41817;SDS011;27493;51.730;5.294;2023-04-23T13:31:56;3.60;;;1.67;;
41817;SDS011;27493;51.730;5.294;2023-04-23T13:34:22;3.27;;;1.70;;
41817;SDS011;27493;51.730;5.294;2023-04-23T13:36:47;4.63;;;2.00;;
41817;SDS011;27493;51.730;5.294;2023-04-23T13:39:12;4.97;;;1.60;;
41817;SDS011;27493;51.730;5.294;2023-04-23T13:41:38;4.00;;;1.87;;
41817;SDS011;27493;51.730;5.294;2023-04-23T13:44:03;5.90;;;1.53;;
41817;SDS011;27493;51.730;5.294;2023-04-23T13:46:29;4.37;;;1.90;;
41817;SDS011;27493;51.730;5.294;2023-04-23T13:48:54;4.33;;;1.63;;
41817;SDS011;27493;51.730;5.294;2023-04-23T13:51:20;5.57;;;1.77;;
41817;SDS011;27493;51.730;5.294;2023-04-23T13:53:45;7.37;;;2.20;;
41817;SDS011;27493;51.730;5.294;2023-04-23T13:56:11;4.97;;;1.80;;
41817;SDS011;27493;51.730;5.294;2023-04-23T13:58:36;6.53;;;1.80;;
41817;SDS011;27493;51.730;5.294;2023-04-23T14:01:02;4.30;;;1.57;;
41817;SDS011;27493;51.730;5.294;2023-04-23T14:03:28;5.50;;;1.70;;
41817;SDS011;27493;51.730;5.294;2023-04-23T14:05:53;3.83;;;1.57;;
41817;SDS011;27493;51.730;5.294;2023-04-23T14:08:18;2.10;;;1.40;;
41817;SDS011;27493;51.730;5.294;2023-04-23T14:10:43;3.70;;;1.43;;
41817;SDS011;27493;51.730;5.294;2023-04-23T14:13:08;5.30;;;1.70;;
41817;SDS011;27493;51.730;5.294;2023-04-23T14:15:34;5.13;;;1.50;;
41817;SDS011;27493;51.730;5.294;2023-04-23T14:17:59;2.80;;;1.40;;
41817;SDS011;27493;51.730;5.294;2023-04-23T14:20:24;3.80;;;1.43;;
41817;SDS011;27493;51.730;5.294;2023-04-23T14:22:54;5.67;;;1.63;;
41817;SDS011;27493;51.730;5.294;2023-04-23T14:25:29;4.57;;;1.70;;
41817;SDS011;27493;51.730;5.294;2023-04-23T14:27:58;14.13;;;8.90;;
41817;SDS011;27493;51.730;5.294;2023-04-23T14:30:26;5.90;;;3.47;;
41817;SDS011;27493;51.730;5.294;2023-04-23T14:32:53;2.30;;;1.60;;
41817;SDS011;27493;51.730;5.294;2023-04-23T14:35:20;3.80;;;1.70;;
41817;SDS011;27493;51.730;5.294;2023-04-23T14:37:45;3.87;;;2.47;;